Time;durP1;ratioP1;P1;durP2;ratioP2;P2;SDS_P1;SDS_P2;PMS_P1;PMS_P2;Temp;Humidity;BMP_temperature;BMP_pressure;BME280_temperature;BME280_humidity;BME280_pressure;Samples;Min_cycle;Max_cycle;Signal;HPM_P1;HPM_P2
2023/05/20 00:02:15;;;;;;;;;;;;;;;21.35;45.86;102527.00;5140870;27;5352;-63
2023/05/20 00:04:42;;;;;;;;;;;;;;;21.35;46.15;102529.81;5144428;27;9678;-63
2023/05/20 00:07:09;;;;;;;;;;;;;;;21.38;46.07;102522.81;5124285;27;11509;-63
2023/05/20 00:09:37;;;;;;;;;;;;;;;21.38;45.93;102520.84;5143691;27;10214;-62
2023/05/20 00:12:03;;;;;;;;;;;;;;;21.38;46.03;102522.81;5143479;27;9630;-63
2023/05/20 00:14:30;;;;;;;;;;;;;;;21.37;46.00;102521.97;5143940;27;11691;-62
2023/05/20 00:16:57;;;;;;;;;;;;;;;21.35;45.78;102515.75;5123689;27;7649;-62
2023/05/20 00:19:23;;;;;;;;;;;;;;;21.37;45.88;102518.31;5143710;27;9873;-63
2023/05/20 00:21:50;;;;;;;;;;;;;;;21.35;45.90;102506.50;5142520;27;7644;-63
2023/05/20 00:24:16;;;;;;;;;;;;;;;21.35;45.77;102515.75;5142468;27;10018;-62
2023/05/20 00:26:43;;;;;;;;;;;;;;;21.35;46.08;102512.13;5142333;27;12465;-63
2023/05/20 00:29:10;;;;;;;;;;;;;;;21.35;45.94;102517.75;5142473;27;15943;-63
2023/05/20 00:31:36;;;;;;;;;;;;;;;21.32;46.01;102519.13;5141517;27;14124;-63
2023/05/20 00:34:03;;;;;;;;;;;;;;;21.33;45.91;102515.22;5142688;27;9858;-63
2023/05/20 00:36:30;;;;;;;;;;;;;;;21.33;45.73;102517.16;5142276;27;9658;-62
2023/05/20 00:38:56;;;;;;;;;;;;;;;21.32;46.10;102509.84;5124554;27;9945;-62
2023/05/20 00:41:23;;;;;;;;;;;;;;;21.34;45.84;102519.72;5142429;27;15583;-63
2023/05/20 00:43:52;;;;;;;;;;;;;;;21.33;45.99;102512.41;5143508;27;16746;-63
2023/05/20 00:46:19;;;;;;;;;;;;;;;21.29;45.93;102509.28;5141511;27;15943;-62
2023/05/20 00:48:46;;;;;;;;;;;;;;;21.28;45.86;102507.59;5142965;27;9525;-63
2023/05/20 00:51:13;;;;;;;;;;;;;;;21.30;46.02;102504.53;5142053;27;6421;-63
2023/05/20 00:53:40;;;;;;;;;;;;;;;21.28;45.79;102512.38;5140812;27;14236;-62
2023/05/20 00:56:07;;;;;;;;;;;;;;;21.28;45.84;102509.56;5141885;27;14192;-62
2023/05/20 00:58:37;;;;;;;;;;;;;;;21.29;45.90;102514.06;5143161;27;6427;-63
2023/05/20 01:01:04;;;;;;;;;;;;;;;21.28;45.93;102509.56;5140774;27;7530;-63
2023/05/20 01:03:31;;;;;;;;;;;;;;;21.27;45.60;102499.44;5142801;27;6143;-63
2023/05/20 01:05:58;;;;;;;;;;;;;;;21.26;45.82;102507.00;5139698;27;9569;-63
2023/05/20 01:08:25;;;;;;;;;;;;;;;21.27;45.79;102505.06;5141292;27;9480;-62
2023/05/20 01:10:57;;;;;;;;;;;;;;;21.26;45.58;102500.53;5123465;27;5051;-62
2023/05/20 01:13:28;;;;;;;;;;;;;;;21.23;45.74;102501.97;5142949;27;9856;-62
2023/05/20 01:16:03;;;;;;;;;;;;;;;21.26;45.73;102497.72;5139029;27;9211;-62
2023/05/20 01:18:31;;;;;;;;;;;;;;;21.23;45.81;102496.34;5142014;27;8004;-62
2023/05/20 01:21:00;;;;;;;;;;;;;;;21.24;45.90;102489.59;5142065;27;9294;-63
2023/05/20 01:23:37;;;;;;;;;;;;;;;21.23;45.76;102496.34;5142066;27;11149;-62
2023/05/20 01:26:07;;;;;;;;;;;;;;;21.22;45.62;102486.19;5141475;27;11134;-62
2023/05/20 01:28:35;;;;;;;;;;;;;;;21.23;46.04;102489.88;5142581;27;13645;-63
2023/05/20 01:31:04;;;;;;;;;;;;;;;21.22;45.75;102485.34;5140818;27;9858;-63
2023/05/20 01:33:34;;;;;;;;;;;;;;;21.21;45.71;102481.69;5142489;27;9886;-63
2023/05/20 01:36:02;;;;;;;;;;;;;;;21.21;45.76;102475.25;5141525;27;7524;-62
2023/05/20 01:38:38;;;;;;;;;;;;;;;21.20;45.72;102473.56;5143528;27;7994;-63
2023/05/20 01:41:06;;;;;;;;;;;;;;;21.21;45.55;102470.44;5141074;27;10455;-62
2023/05/20 01:43:33;;;;;;;;;;;;;;;21.20;45.47;102462.31;5142783;27;7980;-63
2023/05/20 01:46:05;;;;;;;;;;;;;;;21.20;45.66;102462.31;5139877;27;8095;-62
2023/05/20 01:48:31;;;;;;;;;;;;;;;21.22;45.76;102460.06;5119711;27;9071;-62
2023/05/20 01:50:58;;;;;;;;;;;;;;;21.19;45.69;102458.66;5120051;27;8883;-63
2023/05/20 01:53:24;;;;;;;;;;;;;;;21.21;45.64;102461.19;5121668;27;7997;-62
2023/05/20 01:55:51;;;;;;;;;;;;;;;21.18;45.36;102464.53;5120482;27;8142;-62
2023/05/20 01:58:17;;;;;;;;;;;;;;;21.16;45.66;102464.84;5125032;27;8186;-63
2023/05/20 02:00:44;;;;;;;;;;;;;;;21.18;45.48;102464.53;5119440;27;8252;-63
2023/05/20 02:03:11;;;;;;;;;;;;;;;21.15;45.58;102462.28;5121142;27;8001;-62
2023/05/20 02:05:37;;;;;;;;;;;;;;;21.15;45.55;102457.53;5119747;27;9214;-63
2023/05/20 02:08:04;;;;;;;;;;;;;;;21.14;45.75;102464.25;5120867;27;7983;-63
2023/05/20 02:10:31;;;;;;;;;;;;;;;21.14;45.75;102466.22;5118449;27;9191;-62
2023/05/20 02:12:58;;;;;;;;;;;;;;;21.15;45.65;102465.94;5121113;27;11512;-63
2023/05/20 02:15:24;;;;;;;;;;;;;;;21.16;45.60;102467.66;5119975;27;9203;-62
2023/05/20 02:17:51;;;;;;;;;;;;;;;21.13;45.64;102464.53;5119357;27;5329;-63
2023/05/20 02:20:18;;;;;;;;;;;;;;;21.14;45.63;102466.22;5119862;27;10189;-63
2023/05/20 02:22:44;;;;;;;;;;;;;;;21.13;45.84;102461.72;5120624;27;8041;-63
2023/05/20 02:25:11;;;;;;;;;;;;;;;21.13;45.76;102456.09;5120649;27;9479;-63
2023/05/20 02:27:39;;;;;;;;;;;;;;;21.11;45.61;102456.34;5120246;27;5806;-62
2023/05/20 02:30:07;;;;;;;;;;;;;;;21.12;45.53;102455.22;5119235;27;7815;-63
2023/05/20 02:32:33;;;;;;;;;;;;;;;21.10;45.71;102446.22;5117140;27;8002;-62
2023/05/20 02:35:00;;;;;;;;;;;;;;;21.09;45.69;102446.50;5121308;27;9288;-62
2023/05/20 02:37:27;;;;;;;;;;;;;;;21.12;45.62;102441.16;5121227;27;5518;-63
2023/05/20 02:39:55;;;;;;;;;;;;;;;21.12;45.62;102451.59;5118997;27;10774;-62
2023/05/20 02:42:21;;;;;;;;;;;;;;;21.11;45.53;102449.88;5120432;27;8164;-63
2023/05/20 02:44:48;;;;;;;;;;;;;;;21.10;45.71;102443.41;5120769;27;8254;-63
2023/05/20 02:47:14;;;;;;;;;;;;;;;21.09;45.63;102444.53;5119052;27;10834;-63
2023/05/20 02:49:41;;;;;;;;;;;;;;;21.08;45.55;102442.84;5134125;27;8230;-63
2023/05/20 02:52:07;;;;;;;;;;;;;;;21.08;45.65;102444.78;5140159;27;7985;-62
2023/05/20 02:54:34;;;;;;;;;;;;;;;21.07;45.67;102451.56;5140868;27;8002;-63
2023/05/20 02:57:01;;;;;;;;;;;;;;;21.06;45.71;102449.88;5141607;27;8514;-62
2023/05/20 02:59:27;;;;;;;;;;;;;;;21.07;45.69;102446.78;5145052;27;5811;-62
2023/05/20 03:01:54;;;;;;;;;;;;;;;21.06;45.70;102449.88;5141294;27;6021;-62
2023/05/20 03:04:21;;;;;;;;;;;;;;;21.05;45.60;102446.22;5143313;27;5534;-63
2023/05/20 03:06:47;;;;;;;;;;;;;;;21.05;45.80;102448.16;5144093;27;7977;-63
2023/05/20 03:09:14;;;;;;;;;;;;;;;21.06;45.79;102445.09;5144798;27;9315;-63
2023/05/20 03:11:41;;;;;;;;;;;;;;;21.04;45.63;102441.69;5143086;27;8036;-63
2023/05/20 03:14:07;;;;;;;;;;;;;;;21.04;45.82;102454.91;5144270;27;11431;-63
2023/05/20 03:16:34;;;;;;;;;;;;;;;21.02;45.78;102452.38;5143621;27;10073;-63
2023/05/20 03:19:01;;;;;;;;;;;;;;;21.04;45.54;102460.53;5144488;27;6199;-62
2023/05/20 03:21:28;;;;;;;;;;;;;;;21.06;45.76;102452.66;5143992;27;9507;-62
2023/05/20 03:23:54;;;;;;;;;;;;;;;21.06;45.75;102449.88;5143393;27;10154;-62
2023/05/20 03:26:22;;;;;;;;;;;;;;;21.06;45.59;102453.53;5143587;27;5886;-63
2023/05/20 03:28:48;;;;;;;;;;;;;;;21.05;45.50;102448.16;5144262;27;7306;-62
2023/05/20 03:31:15;;;;;;;;;;;;;;;21.05;45.50;102448.16;5142937;27;12703;-63
2023/05/20 03:33:41;;;;;;;;;;;;;;;21.03;45.81;102445.63;5144147;27;5413;-63
2023/05/20 03:36:10;;;;;;;;;;;;;;;21.00;45.63;102449.00;5143227;27;7944;-63
2023/05/20 03:38:36;;;;;;;;;;;;;;;20.99;45.68;102444.47;5143602;27;7301;-63
2023/05/20 03:41:03;;;;;;;;;;;;;;;21.01;45.92;102444.22;5144102;27;10813;-63
2023/05/20 03:43:29;;;;;;;;;;;;;;;21.00;45.65;102445.34;5125015;27;7998;-63
2023/05/20 03:46:02;;;;;;;;;;;;;;;20.99;45.75;102450.09;5142042;27;10955;-63
2023/05/20 03:48:29;;;;;;;;;;;;;;;20.97;45.55;102449.56;5143935;27;5741;-63
2023/05/20 03:50:55;;;;;;;;;;;;;;;20.99;45.75;102452.06;5142545;27;7808;-63
2023/05/20 03:53:23;;;;;;;;;;;;;;;20.98;45.57;102447.59;5144401;27;8002;-63
2023/05/20 03:55:49;;;;;;;;;;;;;;;20.97;45.87;102440.28;5126367;27;8011;-63
2023/05/20 03:58:16;;;;;;;;;;;;;;;20.96;45.87;102456.28;5144203;27;11014;-62
2023/05/20 04:00:42;;;;;;;;;;;;;;;20.95;45.96;102451.78;5141305;27;8195;-63
2023/05/20 04:03:10;;;;;;;;;;;;;;;20.94;45.68;102447.28;5143757;27;12349;-63
2023/05/20 04:05:37;;;;;;;;;;;;;;;20.95;45.72;102454.59;5141565;27;11711;-63
2023/05/20 04:08:03;;;;;;;;;;;;;;;20.96;45.57;102444.19;5143979;27;9740;-63
2023/05/20 04:10:31;;;;;;;;;;;;;;;20.97;45.72;102443.09;5143145;27;10555;-62
2023/05/20 04:12:58;;;;;;;;;;;;;;;20.97;45.95;102443.94;5143231;27;9198;-63
2023/05/20 04:15:24;;;;;;;;;;;;;;;20.96;45.96;102439.44;5123896;27;9871;-62
2023/05/20 04:17:51;;;;;;;;;;;;;;;20.94;45.71;102438.03;5141711;27;5845;-63
2023/05/20 04:20:17;;;;;;;;;;;;;;;20.94;45.76;102432.41;5142049;27;13578;-62
2023/05/20 04:22:44;;;;;;;;;;;;;;;20.95;45.97;102434.06;5123562;27;10936;-63
2023/05/20 04:25:11;;;;;;;;;;;;;;;20.92;45.79;102443.91;5143201;27;9805;-62
2023/05/20 04:27:38;;;;;;;;;;;;;;;20.94;45.65;102438.84;5142189;27;14612;-63
2023/05/20 04:30:05;;;;;;;;;;;;;;;20.91;46.05;102442.22;5123218;27;7674;-63
2023/05/20 04:32:35;;;;;;;;;;;;;;;20.91;46.04;102444.16;5141231;27;9866;-62
2023/05/20 04:35:02;;;;;;;;;;;;;;;20.90;45.90;102445.28;5143479;27;5469;-63
2023/05/20 04:37:28;;;;;;;;;;;;;;;20.91;45.78;102441.38;5123179;27;14585;-63
2023/05/20 04:39:55;;;;;;;;;;;;;;;20.90;45.79;102448.09;5125511;27;11283;-63
2023/05/20 04:42:21;;;;;;;;;;;;;;;20.89;46.06;102452.91;5142198;27;8142;-63
2023/05/20 04:44:48;;;;;;;;;;;;;;;20.89;46.12;102444.47;5142438;27;9923;-63
2023/05/20 04:47:14;;;;;;;;;;;;;;;20.88;45.79;102441.91;5140311;27;11913;-63
2023/05/20 04:49:41;;;;;;;;;;;;;;;20.87;45.92;102443.88;5143029;27;9932;-63
2023/05/20 04:52:08;;;;;;;;;;;;;;;20.87;46.02;102446.69;5141728;27;7570;-63
2023/05/20 04:54:35;;;;;;;;;;;;;;;20.86;46.10;102445.84;5142774;27;14598;-62
2023/05/20 04:57:01;;;;;;;;;;;;;;;20.87;46.07;102449.50;5142065;27;10388;-63
2023/05/20 04:59:28;;;;;;;;;;;;;;;20.86;45.89;102445.84;5142816;27;5179;-62
2023/05/20 05:01:55;;;;;;;;;;;;;;;20.86;45.96;102439.38;5119566;27;9944;-63
2023/05/20 05:04:21;;;;;;;;;;;;;;;20.87;46.13;102441.06;5142473;27;14495;-63
2023/05/20 05:06:48;;;;;;;;;;;;;;;20.85;45.87;102438.53;5141789;27;8013;-63
2023/05/20 05:09:15;;;;;;;;;;;;;;;20.86;46.04;102442.19;5143091;27;11115;-63
2023/05/20 05:11:42;;;;;;;;;;;;;;;20.85;46.10;102446.09;5141483;27;9667;-63
2023/05/20 05:14:08;;;;;;;;;;;;;;;20.89;46.10;102435.19;5141449;27;12845;-63
2023/05/20 05:16:35;;;;;;;;;;;;;;;20.85;46.18;102432.06;5140371;27;10725;-63
2023/05/20 05:19:01;;;;;;;;;;;;;;;20.87;46.21;102446.69;5141185;27;11728;-63
2023/05/20 05:21:28;;;;;;;;;;;;;;;20.86;45.81;102440.22;5141776;27;9670;-63
2023/05/20 05:23:56;;;;;;;;;;;;;;;20.85;45.88;102441.34;5122767;27;14505;-62
2023/05/20 05:26:23;;;;;;;;;;;;;;;20.85;45.85;102435.72;5141567;27;7581;-63
2023/05/20 05:28:50;;;;;;;;;;;;;;;20.83;45.75;102440.78;5142465;27;7557;-62
2023/05/20 05:31:17;;;;;;;;;;;;;;;20.83;46.01;102428.69;5140607;27;7576;-62
2023/05/20 05:33:43;;;;;;;;;;;;;;;20.84;45.73;102436.88;5139301;27;14595;-62
2023/05/20 05:36:10;;;;;;;;;;;;;;;20.83;46.02;102434.31;5141579;27;14653;-63
2023/05/20 05:38:37;;;;;;;;;;;;;;;20.83;45.86;102431.50;5141918;27;15767;-63
2023/05/20 05:41:03;;;;;;;;;;;;;;;20.84;46.01;102438.81;5141249;27;10010;-63
2023/05/20 05:43:30;;;;;;;;;;;;;;;20.82;45.86;102433.47;5141792;27;14499;-63
2023/05/20 05:45:56;;;;;;;;;;;;;;;20.80;46.14;102440.50;5140217;27;14604;-62
2023/05/20 05:48:28;;;;;;;;;;;;;;;20.82;45.82;102432.63;5141199;27;14593;-63
2023/05/20 05:50:55;;;;;;;;;;;;;;;20.81;46.07;102437.38;5140483;27;14573;-63
2023/05/20 05:53:21;;;;;;;;;;;;;;;20.81;45.96;102437.38;5141456;27;14885;-63
2023/05/20 05:55:48;;;;;;;;;;;;;;;20.82;45.98;102443.84;5121168;27;7826;-62
2023/05/20 05:58:15;;;;;;;;;;;;;;;20.82;45.88;102433.47;5142488;27;5478;-62
2023/05/20 06:00:41;;;;;;;;;;;;;;;20.80;45.93;102438.50;5139236;27;14503;-63
2023/05/20 06:03:08;;;;;;;;;;;;;;;20.83;46.02;102446.41;5140320;27;8193;-63
2023/05/20 06:05:35;;;;;;;;;;;;;;;20.81;46.13;102443.00;5121580;27;15828;-63
2023/05/20 06:08:02;;;;;;;;;;;;;;;20.79;46.36;102442.47;5142401;27;11008;-63
2023/05/20 06:10:28;;;;;;;;;;;;;;;20.79;45.95;102445.25;5141989;27;8198;-63
2023/05/20 06:12:55;;;;;;;;;;;;;;;20.81;46.18;102444.97;5140985;27;15075;-63
2023/05/20 06:15:21;;;;;;;;;;;;;;;20.81;45.87;102444.97;5140298;27;17168;-62
2023/05/20 06:17:48;;;;;;;;;;;;;;;20.79;46.17;102442.47;5141189;27;9663;-62
2023/05/20 06:20:15;;;;;;;;;;;;;;;20.78;46.09;102443.56;5141790;27;9860;-63
2023/05/20 06:22:41;;;;;;;;;;;;;;;20.78;45.92;102440.75;5141928;27;8000;-63
2023/05/20 06:25:08;;;;;;;;;;;;;;;20.79;46.27;102442.47;5141650;27;9949;-63
2023/05/20 06:27:35;;;;;;;;;;;;;;;20.79;46.20;102438.78;5140219;27;9866;-64
2023/05/20 06:30:01;;;;;;;;;;;;;;;20.79;46.22;102436.84;5141678;27;7559;-63
2023/05/20 06:32:28;;;;;;;;;;;;;;;20.79;46.27;102438.78;5142572;27;5362;-63
2023/05/20 06:34:55;;;;;;;;;;;;;;;20.81;45.87;102434.59;5145388;27;7690;-63
2023/05/20 06:37:23;;;;;;;;;;;;;;;20.82;46.00;102430.66;5143529;27;14546;-63
2023/05/20 06:39:52;;;;;;;;;;;;;;;20.83;46.18;102429.53;5145677;27;9673;-63
2023/05/20 06:42:20;;;;;;;;;;;;;;;20.85;45.96;102434.88;5145066;27;7367;-63
2023/05/20 06:44:46;;;;;;;;;;;;;;;20.85;46.15;102427.28;5144565;27;7573;-63
2023/05/20 06:47:14;;;;;;;;;;;;;;;20.85;45.91;102421.66;5143267;27;9084;-63
2023/05/20 06:49:41;;;;;;;;;;;;;;;20.85;46.12;102423.63;5144684;27;14206;-63
2023/05/20 06:52:12;;;;;;;;;;;;;;;20.86;46.16;102429.00;5143575;27;11965;-63
2023/05/20 06:54:40;;;;;;;;;;;;;;;20.88;46.29;102414.69;5144625;27;11328;-62
2023/05/20 06:57:07;;;;;;;;;;;;;;;20.91;46.39;102418.88;5144014;27;9491;-63
2023/05/20 06:59:34;;;;;;;;;;;;;;;20.94;46.47;102421.97;5144887;27;11967;-62
2023/05/20 07:02:02;;;;;;;;;;;;;;;20.96;46.28;102421.72;5143028;27;8560;-63
2023/05/20 07:04:28;;;;;;;;;;;;;;;20.98;46.61;102417.53;5144997;27;11127;-63
2023/05/20 07:06:55;;;;;;;;;;;;;;;21.01;46.69;102418.94;5144289;27;7549;-63
2023/05/20 07:09:22;;;;;;;;;;;;;;;21.04;46.80;102419.22;5125739;27;7995;-62
2023/05/20 07:11:49;;;;;;;;;;;;;;;21.07;46.53;102415.88;5126557;27;11487;-63
2023/05/20 07:14:16;;;;;;;;;;;;;;;21.10;46.55;102422.88;5144143;27;9227;-63
2023/05/20 07:16:42;;;;;;;;;;;;;;;21.13;46.73;102413.94;5142554;27;8140;-63
2023/05/20 07:19:09;;;;;;;;;;;;;;;21.17;46.94;102410.28;5143950;27;10021;-63
2023/05/20 07:21:36;;;;;;;;;;;;;;;21.20;46.76;102406.09;5143801;27;9204;-63
2023/05/20 07:24:02;;;;;;;;;;;;;;;21.22;46.74;102415.94;5124478;27;7337;-63
2023/05/20 07:26:32;;;;;;;;;;;;;;;21.25;46.55;102411.72;5143936;27;10231;-63
2023/05/20 07:28:59;;;;;;;;;;;;;;;21.29;46.60;102404.44;5126073;27;11731;-63
2023/05/20 07:31:25;;;;;;;;;;;;;;;21.33;46.51;102411.19;5143086;27;12226;-63
2023/05/20 07:33:52;;;;;;;;;;;;;;;21.35;46.45;102408.91;5144315;27;10298;-63
2023/05/20 07:36:19;;;;;;;;;;;;;;;21.36;46.65;102405.00;5143047;27;8263;-62
2023/05/20 07:38:45;;;;;;;;;;;;;;;21.39;46.64;102412.88;5144649;27;7981;-63
2023/05/20 07:41:28;;;;;;;;;;;;;;;21.43;46.52;102415.97;5143134;27;8012;-63
2023/05/20 07:43:55;;;;;;;;;;;;;;;21.46;46.54;102416.25;5144660;27;10253;-63
2023/05/20 07:46:21;;;;;;;;;;;;;;;21.48;46.58;102410.38;5142214;27;7995;-63
2023/05/20 07:48:48;;;;;;;;;;;;;;;21.51;46.46;102416.28;5144653;27;10207;-63
2023/05/20 07:51:15;;;;;;;;;;;;;;;21.54;46.48;102417.66;5142512;27;10226;-62
2023/05/20 07:53:41;;;;;;;;;;;;;;;21.55;46.60;102403.34;5144810;27;5509;-62
2023/05/20 07:56:08;;;;;;;;;;;;;;;21.59;46.40;102410.09;5143703;27;11153;-63
2023/05/20 07:58:35;;;;;;;;;;;;;;;21.61;46.31;102407.00;5125827;27;10310;-62
2023/05/20 08:01:02;;;;;;;;;;;;;;;21.63;46.32;102405.59;5141627;27;8257;-62
2023/05/20 08:03:28;;;;;;;;;;;;;;;21.65;46.30;102399.69;5144250;27;5343;-62
2023/05/20 08:05:55;;;;;;;;;;;;;;;21.66;46.40;102395.75;5142645;27;10247;-62
2023/05/20 08:08:22;;;;;;;;;;;;;;;21.67;46.24;102389.81;5144602;27;9306;-63
2023/05/20 08:10:49;;;;;;;;;;;;;;;21.69;46.37;102387.59;5142088;27;12745;-62
2023/05/20 08:13:16;;;;;;;;;;;;;;;21.71;46.24;102378.88;5144208;27;9632;-63
2023/05/20 08:18:09;;;;;;;;;;;;;;;21.73;46.46;102373.81;5143295;27;7594;-63
2023/05/20 08:20:36;;;;;;;;;;;;;;;21.76;46.50;102375.22;5122455;27;10377;-63
2023/05/20 08:23:02;;;;;;;;;;;;;;;21.78;46.57;102367.31;5144120;27;10049;-62
2023/05/20 08:25:30;;;;;;;;;;;;;;;21.79;46.39;102361.44;5142606;27;12492;-62
2023/05/20 08:27:56;;;;;;;;;;;;;;;21.79;46.30;102364.25;5143402;27;10317;-63
2023/05/20 08:30:23;;;;;;;;;;;;;;;21.81;46.26;102361.13;5142734;27;8189;-63
2023/05/20 08:32:50;;;;;;;;;;;;;;;21.81;46.37;102358.31;5143375;27;5065;-63
2023/05/20 08:35:17;;;;;;;;;;;;;;;21.83;46.13;102359.72;5142375;27;8193;-63
2023/05/20 08:37:43;;;;;;;;;;;;;;;21.83;46.05;102356.06;5140205;27;8213;-63
2023/05/20 08:40:11;;;;;;;;;;;;;;;21.83;46.14;102356.91;5143122;27;6296;-63
2023/05/20 08:42:40;;;;;;;;;;;;;;;21.84;46.09;102361.41;5143818;27;5503;-63
2023/05/20 08:45:09;;;;;;;;;;;;;;;21.85;46.17;102360.28;5143032;27;5434;-63
2023/05/20 08:47:37;;;;;;;;;;;;;;;21.85;46.23;102354.66;5124334;27;10561;-63
2023/05/20 08:50:04;;;;;;;;;;;;;;;21.87;46.68;102355.22;5142410;27;7744;-63
2023/05/20 08:52:33;;;;;;;;;;;;;;;21.88;46.67;102353.25;5129286;27;9474;-63
2023/05/20 08:55:01;;;;;;;;;;;;;;;21.87;46.90;102352.41;5142079;27;7693;-63
2023/05/20 08:57:28;;;;;;;;;;;;;;;21.90;46.82;102348.16;5144140;27;7822;-64
2023/05/20 08:59:56;;;;;;;;;;;;;;;21.90;46.86;102342.53;5143159;27;7527;-63
2023/05/20 09:02:22;;;;;;;;;;;;;;;21.89;46.54;102338.91;5121255;27;11436;-63
2023/05/20 09:04:49;;;;;;;;;;;;;;;21.91;46.52;102347.03;5143554;27;7996;-63
2023/05/20 09:07:25;;;;;;;;;;;;;;;21.91;46.72;102336.63;5142911;27;11089;-63
2023/05/20 09:09:52;;;;;;;;;;;;;;;21.94;46.55;102340.91;5143577;27;13955;-63
2023/05/20 09:12:20;;;;;;;;;;;;;;;21.95;46.53;102345.38;5142319;27;9624;-63
2023/05/20 09:14:46;;;;;;;;;;;;;;;21.94;46.49;102338.09;5142675;27;8196;-63
2023/05/20 09:17:13;;;;;;;;;;;;;;;21.94;46.61;102341.72;5142304;27;8184;-63
2023/05/20 09:19:40;;;;;;;;;;;;;;;21.95;46.56;102332.16;5123742;27;7889;-63
2023/05/20 09:22:06;;;;;;;;;;;;;;;21.95;46.51;102329.34;5141100;27;15312;-63
2023/05/20 09:24:33;;;;;;;;;;;;;;;21.95;46.54;102328.50;5143007;27;7993;-64
2023/05/20 09:27:00;;;;;;;;;;;;;;;21.97;46.58;102327.09;5143440;27;9652;-63
2023/05/20 09:29:26;;;;;;;;;;;;;;;21.99;46.67;102323.97;5142219;27;10889;-63
2023/05/20 09:31:54;;;;;;;;;;;;;;;21.98;46.57;102320.34;5140649;27;10111;-63
2023/05/20 09:34:20;;;;;;;;;;;;;;;22.00;46.57;102317.22;5143712;27;7812;-63
2023/05/20 09:36:49;;;;;;;;;;;;;;;22.01;46.63;102313.28;5142504;27;6596;-63
2023/05/20 09:41:53;;;;;;;;;;;;;;;22.02;46.66;102315.00;5143450;27;5452;-63
2023/05/20 09:44:20;;;;;;;;;;;;;;;22.01;46.76;102304.84;5140031;27;10186;-63
2023/05/20 09:46:47;;;;;;;;;;;;;;;22.02;46.77;102300.91;5139814;27;10315;-63
2023/05/20 09:49:15;;;;;;;;;;;;;;;22.01;46.82;102297.25;5138722;27;5614;-63
2023/05/20 09:51:42;;;;;;;;;;;;;;;22.01;46.71;102288.81;5141018;27;5307;-62
2023/05/20 09:54:11;;;;;;;;;;;;;;;22.04;46.85;102298.63;5123382;27;12456;-62
2023/05/20 09:56:39;;;;;;;;;;;;;;;22.02;46.92;102290.50;5141694;27;15806;-63
2023/05/20 09:59:06;;;;;;;;;;;;;;;22.04;46.86;102284.56;5141803;27;11158;-63
2023/05/20 10:01:33;;;;;;;;;;;;;;;22.03;46.92;102282.91;5140886;27;7549;-63
2023/05/20 10:04:01;;;;;;;;;;;;;;;22.03;46.72;102280.91;5122360;27;5150;-63
2023/05/20 10:06:57;;;;;;;;;;;;;;;22.03;46.67;102280.91;5144178;27;8010;-63
2023/05/20 10:09:36;;;;;;;;;;;;;;;22.03;46.82;102266.03;5125326;27;5349;-63
2023/05/20 10:12:06;;;;;;;;;;;;;;;22.04;46.86;102262.91;5145640;27;10239;-63
2023/05/20 10:14:51;;;;;;;;;;;;;;;22.02;46.64;102267.97;5145382;27;10802;-63
2023/05/20 10:17:36;;;;;;;;;;;;;;;22.06;46.80;102262.63;5144485;27;9502;-63
2023/05/20 10:20:05;;;;;;;;;;;;;;;22.03;46.48;102260.38;5127697;27;11178;-63
2023/05/20 10:22:32;;;;;;;;;;;;;;;22.03;46.52;102264.03;5143663;27;8978;-64
2023/05/20 10:24:59;;;;;;;;;;;;;;;22.03;46.64;102255.56;5145898;27;6035;-64
2023/05/20 10:27:26;;;;;;;;;;;;;;;22.01;46.33;102255.03;5141949;27;9861;-63
2023/05/20 10:29:54;;;;;;;;;;;;;;;22.03;46.45;102261.19;5145515;27;7534;-63
2023/05/20 10:32:23;;;;;;;;;;;;;;;22.06;46.41;102251.34;5143378;27;8105;-63
2023/05/20 10:34:50;;;;;;;;;;;;;;;22.03;46.36;102252.75;5141727;27;10272;-63
2023/05/20 10:37:23;;;;;;;;;;;;;;;22.06;46.31;102251.34;5144352;27;8002;-63
2023/05/20 10:39:49;;;;;;;;;;;;;;;22.04;46.36;102256.41;5146085;27;9317;-63
2023/05/20 10:42:26;;;;;;;;;;;;;;;22.08;46.35;102251.91;5144637;27;13458;-63
2023/05/20 10:44:52;;;;;;;;;;;;;;;22.07;46.23;102248.28;5145137;27;9576;-62
2023/05/20 10:47:19;;;;;;;;;;;;;;;22.09;46.29;102256.41;5123899;27;8493;-62
2023/05/20 10:49:51;;;;;;;;;;;;;;;22.10;46.14;102247.69;5143857;27;8253;-63
2023/05/20 10:52:19;;;;;;;;;;;;;;;22.08;46.19;102249.94;5143957;27;9465;-63
2023/05/20 10:54:46;;;;;;;;;;;;;;;22.08;46.40;102238.66;5144674;27;8010;-61
2023/05/20 10:57:17;;;;;;;;;;;;;;;22.07;46.46;102242.63;5143562;27;10623;-62
2023/05/20 10:59:43;;;;;;;;;;;;;;;22.06;46.35;102235.31;5144635;27;8201;-62
2023/05/20 11:02:13;;;;;;;;;;;;;;;22.07;46.25;102241.78;5124119;27;8180;-62
2023/05/20 11:04:40;;;;;;;;;;;;;;;22.08;46.17;102224.59;5144835;27;7986;-62
2023/05/20 11:07:07;;;;;;;;;;;;;;;22.09;46.25;102231.06;5143683;27;11048;-61
2023/05/20 11:09:34;;;;;;;;;;;;;;;22.03;46.08;102233.06;5145774;27;9723;-62
2023/05/20 11:12:01;;;;;;;;;;;;;;;22.06;46.16;102228.84;5144420;27;9343;-62
2023/05/20 11:14:28;;;;;;;;;;;;;;;22.07;46.20;102224.91;5125003;27;9313;-62
2023/05/20 11:16:56;;;;;;;;;;;;;;;22.06;46.14;102220.41;5121576;27;8002;-63
2023/05/20 11:19:24;;;;;;;;;;;;;;;22.07;46.35;102219.28;5144974;27;8013;-64
2023/05/20 11:21:51;;;;;;;;;;;;;;;22.09;45.96;102212.22;5143825;27;8190;-63
2023/05/20 11:24:27;;;;;;;;;;;;;;;22.06;46.25;102220.41;5144889;27;12289;-62
2023/05/20 11:26:56;;;;;;;;;;;;;;;22.07;46.10;102211.69;5144128;27;9241;-64
2023/05/20 11:29:25;;;;;;;;;;;;;;;22.04;46.11;102222.66;5143818;27;10248;-61
2023/05/20 11:31:52;;;;;;;;;;;;;;;22.08;46.24;102218.13;5143056;27;9771;-63
2023/05/20 11:34:19;;;;;;;;;;;;;;;22.07;46.23;102225.75;5144708;27;9216;-63
2023/05/20 11:36:49;;;;;;;;;;;;;;;22.05;46.29;102222.38;5125193;27;8031;-62
2023/05/20 11:39:16;;;;;;;;;;;;;;;22.08;45.78;102215.31;5145359;27;9572;-61
2023/05/20 11:41:43;;;;;;;;;;;;;;;22.05;46.01;102211.09;5149112;27;10657;-63
2023/05/20 11:44:11;;;;;;;;;;;;;;;22.06;45.80;102204.34;5157347;27;14112;-65
2023/05/20 11:46:41;;;;;;;;;;;;;;;22.06;45.82;102203.50;5142930;27;14198;-63
2023/05/20 11:49:08;;;;;;;;;;;;;;;22.01;45.82;102197.91;5142959;27;5710;-63
2023/05/20 11:51:36;;;;;;;;;;;;;;;22.04;45.82;102197.31;5142179;27;7974;-63
2023/05/20 11:54:04;;;;;;;;;;;;;;;22.04;45.68;102200.13;5145166;27;5969;-62
2023/05/20 11:56:32;;;;;;;;;;;;;;;22.07;45.51;102183.53;5144489;27;8101;-62
2023/05/20 11:59:00;;;;;;;;;;;;;;;22.08;45.43;102181.53;5144454;27;14615;-62
2023/05/20 12:01:28;;;;;;;;;;;;;;;22.08;45.44;102182.38;5142564;27;8188;-62
2023/05/20 12:03:55;;;;;;;;;;;;;;;22.06;45.58;102181.84;5142733;27;6757;-62
2023/05/20 12:06:21;;;;;;;;;;;;;;;22.02;45.53;102172.28;5143734;27;7970;-62
2023/05/20 12:08:48;;;;;;;;;;;;;;;22.06;45.40;102175.38;5126300;27;11411;-62
2023/05/20 12:11:15;;;;;;;;;;;;;;;22.02;45.41;102172.28;5143719;27;11155;-62
2023/05/20 12:13:42;;;;;;;;;;;;;;;22.08;45.17;102173.09;5143762;27;10062;-62
2023/05/20 12:16:08;;;;;;;;;;;;;;;22.08;45.00;102173.94;5141789;27;9211;-62
2023/05/20 12:18:35;;;;;;;;;;;;;;;22.04;45.00;102157.91;5121053;27;8950;-62
2023/05/20 12:21:01;;;;;;;;;;;;;;;22.04;44.87;102163.53;5143367;27;9858;-62
2023/05/20 12:23:32;;;;;;;;;;;;;;;22.03;44.94;102157.06;5144227;27;9732;-62
2023/05/20 12:25:59;;;;;;;;;;;;;;;22.03;44.80;102148.63;5140302;27;6260;-62
2023/05/20 12:28:32;;;;;;;;;;;;;;;22.07;44.77;102146.94;5122829;27;8286;-63
2023/05/20 12:30:58;;;;;;;;;;;;;;;22.05;44.87;102153.97;5141956;27;8290;-61
2023/05/20 12:33:26;;;;;;;;;;;;;;;22.04;44.92;102157.91;5126029;27;9225;-61
2023/05/20 12:35:53;;;;;;;;;;;;;;;22.00;45.06;102157.66;5142034;27;7548;-61
2023/05/20 12:38:19;;;;;;;;;;;;;;;22.00;44.63;102156.81;5142820;27;9904;-60
2023/05/20 12:40:46;;;;;;;;;;;;;;;22.02;44.76;102146.13;5143067;27;9856;-61
2023/05/20 12:43:12;;;;;;;;;;;;;;;21.98;44.77;102151.50;5141943;27;8383;-61
2023/05/20 12:45:39;;;;;;;;;;;;;;;22.02;44.47;102151.75;5141809;27;5349;-61
2023/05/20 12:48:09;;;;;;;;;;;;;;;22.01;44.28;102150.06;5142446;27;8235;-61
2023/05/20 12:50:35;;;;;;;;;;;;;;;22.02;44.47;102143.31;5140163;27;7883;-61